createdAt,value
2018-06-10T00:00:42.325Z,86.37
2018-06-10T00:03:10.942Z,86.56
2018-06-10T00:05:39.527Z,87.19
2018-06-10T00:08:08.225Z,87.15
2018-06-10T00:10:37.474Z,87.45
2018-06-10T00:13:06.113Z,87.38
2018-06-10T00:15:34.759Z,88.20
2018-06-10T00:18:03.371Z,88.30
2018-06-10T00:20:32.028Z,88.23
2018-06-10T00:23:00.657Z,88.98
2018-06-10T00:25:29.379Z,89.27
2018-06-10T00:27:58.058Z,89.96
2018-06-10T00:30:26.665Z,89.42
2018-06-10T00:32:55.305Z,89.98
2018-06-10T00:35:24.024Z,89.67
2018-06-10T00:37:52.665Z,90.11
2018-06-10T00:40:21.385Z,90.41
2018-06-10T00:42:50.042Z,90.95
2018-06-10T00:45:18.741Z,90.95
2018-06-10T00:47:47.412Z,91.43
2018-06-10T00:50:16.097Z,91.79
2018-06-10T00:52:44.796Z,91.73
2018-06-10T00:55:13.451Z,91.08
2018-06-10T00:57:42.065Z,91.36
2018-06-10T01:00:10.714Z,91.26
2018-06-10T01:02:39.317Z,91.15
2018-06-10T01:05:07.913Z,91.00
2018-06-10T01:07:36.595Z,91.73
2018-06-10T01:10:05.287Z,92.02
2018-06-10T01:12:33.926Z,91.91
2018-06-10T01:15:02.561Z,92.24
2018-06-10T01:17:31.202Z,91.89
2018-06-10T01:19:59.866Z,92.31
2018-06-10T01:22:28.481Z,92.14
2018-06-10T01:24:57.098Z,92.41
2018-06-10T01:27:25.729Z,92.60
2018-06-10T01:29:54.374Z,92.44
2018-06-10T01:32:23.089Z,92.81
2018-06-10T01:34:51.685Z,92.56
2018-06-10T01:37:20.260Z,92.67
2018-06-10T01:39:48.831Z,92.63
2018-06-10T01:42:17.446Z,92.26
2018-06-10T01:44:46.353Z,92.07
2018-06-10T01:47:15.006Z,92.46
2018-06-10T01:49:43.628Z,92.21
2018-06-10T01:52:12.243Z,92.41
2018-06-10T01:54:40.877Z,93.20
2018-06-10T01:57:09.507Z,93.06
2018-06-10T01:59:38.091Z,93.68
2018-06-10T02:02:06.745Z,93.49
2018-06-10T02:04:35.365Z,94.07
2018-06-10T02:07:03.998Z,94.25
2018-06-10T02:09:32.609Z,94.26
2018-06-10T02:12:01.227Z,94.35
2018-06-10T02:14:36.050Z,94.05
2018-06-10T02:17:04.880Z,94.76
2018-06-10T02:19:33.466Z,94.69
2018-06-10T02:22:02.666Z,94.33
2018-06-10T02:24:32.245Z,94.33
2018-06-10T02:27:00.822Z,94.79
2018-06-10T02:29:29.460Z,94.89
2018-06-10T02:31:58.093Z,94.62
2018-06-10T02:34:26.685Z,95.15
2018-06-10T02:36:55.806Z,94.94
2018-06-10T02:39:24.737Z,94.78
2018-06-10T02:41:53.362Z,94.77
2018-06-10T02:44:21.997Z,95.43
2018-06-10T02:46:50.631Z,95.03
2018-06-10T02:49:19.216Z,95.06
2018-06-10T02:51:47.820Z,95.17
2018-06-10T02:54:16.444Z,95.18
2018-06-10T02:56:45.088Z,95.74
2018-06-10T02:59:13.784Z,95.32
2018-06-10T03:01:42.381Z,95.23
2018-06-10T03:04:10.976Z,95.69
2018-06-10T03:06:39.590Z,94.96
2018-06-10T03:09:08.331Z,93.61
2018-06-10T03:11:36.953Z,92.39
2018-06-10T03:14:05.622Z,90.25
2018-06-10T03:16:34.256Z,89.77
2018-06-10T03:19:02.888Z,89.37
2018-06-10T03:21:31.518Z,89.59
2018-06-10T03:24:00.139Z,88.83
2018-06-10T03:26:28.845Z,88.42
2018-06-10T03:28:57.660Z,87.85
2018-06-10T03:31:26.275Z,87.20
2018-06-10T03:33:54.880Z,87.09
2018-06-10T03:36:23.540Z,86.41
2018-06-10T03:38:52.133Z,86.46
2018-06-10T03:41:20.720Z,86.76
2018-06-10T03:43:49.365Z,86.68
2018-06-10T03:46:17.930Z,86.71
2018-06-10T03:48:46.559Z,87.02
2018-06-10T03:51:15.235Z,87.35
2018-06-10T03:53:43.784Z,87.76
2018-06-10T03:56:12.516Z,88.09
2018-06-10T03:58:41.124Z,87.73
2018-06-10T04:01:09.709Z,87.09
2018-06-10T04:03:38.301Z,86.38
2018-06-10T04:06:06.960Z,85.20
2018-06-10T04:08:35.609Z,84.86
2018-06-10T04:11:04.211Z,84.34
2018-06-10T04:13:32.850Z,84.14
2018-06-10T04:16:01.453Z,83.74
2018-06-10T04:18:30.054Z,83.83
2018-06-10T04:20:58.649Z,83.11
2018-06-10T04:23:27.277Z,82.97
2018-06-10T04:25:55.869Z,81.93
2018-06-10T04:28:25.424Z,81.86
2018-06-10T04:30:54.009Z,82.08
2018-06-10T04:33:22.644Z,81.78
2018-06-10T04:35:51.289Z,81.02
2018-06-10T04:38:19.889Z,80.44
2018-06-10T04:40:48.478Z,80.03
2018-06-10T04:43:17.095Z,78.69
2018-06-10T04:45:45.715Z,78.13
2018-06-10T04:48:14.330Z,78.54
2018-06-10T04:50:42.978Z,77.08
2018-06-10T04:53:11.666Z,77.37
2018-06-10T04:55:40.381Z,77.46
2018-06-10T04:58:09.046Z,76.92
2018-06-10T05:00:37.615Z,75.75
2018-06-10T05:03:06.332Z,75.92
2018-06-10T05:05:34.946Z,75.42
2018-06-10T05:08:03.585Z,75.37
2018-06-10T05:10:32.209Z,74.50
2018-06-10T05:13:00.824Z,74.77
2018-06-10T05:15:29.434Z,74.37
2018-06-10T05:17:58.017Z,74.66
2018-06-10T05:20:26.709Z,74.01
2018-06-10T05:22:55.310Z,74.36
2018-06-10T05:25:24.074Z,74.38
2018-06-10T05:27:52.781Z,73.86
2018-06-10T05:30:21.350Z,73.72
2018-06-10T05:32:50.132Z,73.59
2018-06-10T05:35:18.797Z,73.22
2018-06-10T05:37:47.417Z,73.35
2018-06-10T05:40:16.047Z,73.04
2018-06-10T05:42:44.740Z,73.16
2018-06-10T05:45:13.642Z,72.56
2018-06-10T05:47:42.237Z,71.11
2018-06-10T05:50:10.978Z,70.71
2018-06-10T05:52:39.673Z,70.46
2018-06-10T05:55:08.304Z,70.15
2018-06-10T05:57:37.006Z,70.09
2018-06-10T06:00:05.990Z,70.29
2018-06-10T06:02:34.648Z,70.08
2018-06-10T06:05:03.267Z,70.20
2018-06-10T06:07:32.035Z,69.19
2018-06-10T06:10:00.695Z,69.06
2018-06-10T06:12:29.342Z,68.95
2018-06-10T06:14:57.944Z,68.51
2018-06-10T06:17:26.638Z,68.92
2018-06-10T06:19:55.323Z,68.92
2018-06-10T06:22:23.967Z,68.32
2018-06-10T06:24:52.638Z,68.11
2018-06-10T06:27:21.342Z,67.60
2018-06-10T06:29:49.920Z,67.21
2018-06-10T06:32:18.607Z,66.93
2018-06-10T06:34:47.261Z,66.41
2018-06-10T06:37:15.881Z,66.38
2018-06-10T06:39:44.588Z,65.42
2018-06-10T06:42:13.232Z,64.79
2018-06-10T06:44:41.862Z,64.36
2018-06-10T06:47:10.545Z,62.89
2018-06-10T06:49:39.164Z,62.71
2018-06-10T06:52:07.814Z,62.78
2018-06-10T06:54:36.485Z,62.20
2018-06-10T06:57:05.166Z,62.16
2018-06-10T06:59:33.877Z,62.19
2018-06-10T07:02:02.594Z,62.01
2018-06-10T07:04:31.230Z,61.87
2018-06-10T07:06:59.895Z,60.56
2018-06-10T07:09:32.179Z,60.76
2018-06-10T07:12:00.971Z,60.20
2018-06-10T07:14:29.608Z,60.53
2018-06-10T07:16:59.596Z,59.90
2018-06-10T07:19:28.331Z,60.01
2018-06-10T07:21:57.079Z,59.81
2018-06-10T07:24:25.777Z,58.77
2018-06-10T07:26:54.432Z,57.84
2018-06-10T07:29:23.060Z,57.93
2018-06-10T07:31:52.744Z,57.81
2018-06-10T07:34:21.370Z,57.30
2018-06-10T07:36:50.077Z,58.11
2018-06-10T07:39:18.766Z,56.83
2018-06-10T07:41:47.420Z,55.49
2018-06-10T07:44:16.064Z,54.01
2018-06-10T07:46:44.724Z,54.63
2018-06-10T07:49:13.353Z,54.42
2018-06-10T07:51:41.954Z,53.36
2018-06-10T07:54:10.592Z,52.31
2018-06-10T07:56:39.182Z,50.37
2018-06-10T07:59:07.861Z,50.24
2018-06-10T08:01:36.538Z,50.25
2018-06-10T08:04:05.234Z,50.32
2018-06-10T08:06:33.890Z,49.66
2018-06-10T08:09:02.764Z,49.71
2018-06-10T08:11:31.448Z,50.13
2018-06-10T08:14:00.075Z,49.34
2018-06-10T08:16:28.739Z,49.62
2018-06-10T08:18:57.767Z,48.71
2018-06-10T08:21:26.455Z,48.08
2018-06-10T08:23:55.145Z,47.79
2018-06-10T08:26:24.609Z,48.29
2018-06-10T08:29:04.142Z,47.47
2018-06-10T08:31:32.890Z,47.24
2018-06-10T08:34:01.543Z,47.25
2018-06-10T08:36:32.076Z,48.40
2018-06-10T08:39:01.320Z,48.70
2018-06-10T08:41:31.748Z,48.28
2018-06-10T08:44:00.423Z,47.97
2018-06-10T08:46:29.174Z,46.73
2018-06-10T08:48:57.822Z,46.85
2018-06-10T08:51:28.123Z,46.53
2018-06-10T08:53:56.780Z,45.79
2018-06-10T08:56:26.854Z,45.68
2018-06-10T08:58:55.955Z,45.14
2018-06-10T09:01:24.905Z,44.93
2018-06-10T09:16:43.599Z,44.20
2018-06-10T09:19:12.207Z,43.93
2018-06-10T09:21:41.017Z,40.50
2018-06-10T09:24:10.157Z,40.40
2018-06-10T09:26:38.786Z,39.12
2018-06-10T09:29:07.494Z,36.46
2018-06-10T09:31:36.127Z,35.42
2018-06-10T09:34:04.882Z,36.72
2018-06-10T09:36:33.545Z,36.81
2018-06-10T09:39:02.350Z,36.22
2018-06-10T09:41:31.018Z,36.39
2018-06-10T09:43:59.693Z,37.54
2018-06-10T09:46:29.446Z,37.29
2018-06-10T09:48:58.257Z,37.17
2018-06-10T09:51:26.915Z,37.43
2018-06-10T09:53:55.992Z,36.85
2018-06-10T09:56:25.395Z,36.72
2018-06-10T09:58:54.305Z,36.80
2018-06-10T10:01:23.167Z,35.91
2018-06-10T10:03:51.847Z,35.23
2018-06-10T10:06:20.535Z,35.62
2018-06-10T10:08:49.188Z,36.21
2018-06-10T10:11:17.802Z,34.93
2018-06-10T10:13:46.445Z,36.28
2018-06-10T10:16:15.074Z,36.85
2018-06-10T10:18:45.811Z,37.71
2018-06-10T10:21:14.496Z,37.50
2018-06-10T10:23:43.132Z,38.50
2018-06-10T10:26:11.770Z,38.42
2018-06-10T10:28:40.380Z,37.55
2018-06-10T10:31:09.148Z,36.87
2018-06-10T10:33:37.749Z,36.32
2018-06-10T10:36:06.368Z,34.98
2018-06-10T10:38:35.091Z,35.06
2018-06-10T10:41:03.697Z,34.46
2018-06-10T10:43:32.318Z,33.46
2018-06-10T10:46:00.954Z,32.90
2018-06-10T10:48:29.560Z,32.33
2018-06-10T10:50:59.583Z,32.58
2018-06-10T10:53:28.228Z,32.17
2018-06-10T10:56:00.580Z,31.45
2018-06-10T10:58:29.257Z,30.11
2018-06-10T11:00:57.846Z,30.54
2018-06-10T11:03:33.245Z,30.09
2018-06-10T11:06:01.843Z,28.17
2018-06-10T11:08:31.138Z,27.79
2018-06-10T11:10:59.763Z,27.95
2018-06-10T11:13:28.396Z,27.91
2018-06-10T11:15:57.018Z,28.52
2018-06-10T11:18:25.646Z,27.81
2018-06-10T11:20:54.247Z,27.06
2018-06-10T11:23:25.216Z,27.15
2018-06-10T11:25:55.381Z,27.72
2018-06-10T11:28:24.525Z,28.65
2018-06-10T11:30:53.594Z,28.22
2018-06-10T11:33:22.926Z,29.39
2018-06-10T11:35:51.591Z,29.54
2018-06-10T11:38:20.221Z,29.97
2018-06-10T11:40:48.937Z,30.46
2018-06-10T11:43:17.537Z,30.78
2018-06-10T11:45:46.244Z,31.27
2018-06-10T11:48:14.822Z,31.53
2018-06-10T11:50:44.541Z,32.55
2018-06-10T11:53:13.137Z,34.59
2018-06-10T11:55:41.804Z,36.02
2018-06-10T11:58:10.452Z,37.49
2018-06-10T12:00:39.106Z,38.94
2018-06-10T12:03:07.732Z,40.16
2018-06-10T12:05:36.346Z,40.83
2018-06-10T12:08:05.166Z,42.32
2018-06-10T12:10:33.750Z,45.60
2018-06-10T12:13:02.443Z,49.61
2018-06-10T12:15:31.098Z,51.20
2018-06-10T12:17:59.683Z,51.73
2018-06-10T12:20:28.297Z,52.04
2018-06-10T12:22:57.128Z,55.52
2018-06-10T12:25:25.699Z,52.13
2018-06-10T12:27:54.333Z,53.39
2018-06-10T12:40:03.195Z,51.07
2018-06-10T12:42:31.926Z,50.44
2018-06-10T12:45:00.610Z,49.66
2018-06-10T12:47:29.277Z,46.63
2018-06-10T12:49:57.862Z,45.42
2018-06-10T12:52:26.460Z,44.83
2018-06-10T12:54:55.158Z,42.57
2018-06-10T12:57:23.778Z,42.64
2018-06-10T12:59:56.028Z,41.31
2018-06-10T13:02:24.585Z,40.93
2018-06-10T13:04:53.239Z,39.36
2018-06-10T13:07:22.768Z,37.12
2018-06-10T13:09:55.366Z,36.24
2018-06-10T13:12:24.129Z,34.94
2018-06-10T13:14:52.774Z,35.49
2018-06-10T13:17:21.416Z,35.95
2018-06-10T13:19:50.098Z,35.45
2018-06-10T13:22:18.751Z,35.99
2018-06-10T13:24:47.397Z,36.25
2018-06-10T13:27:16.061Z,35.92
2018-06-10T13:29:44.704Z,36.68
2018-06-10T13:32:13.354Z,38.73
2018-06-10T13:34:41.967Z,37.60
2018-06-10T13:37:10.597Z,38.30
2018-06-10T13:39:43.583Z,36.47
2018-06-10T13:42:12.261Z,35.79
2018-06-10T13:44:40.856Z,36.20
2018-06-10T13:47:09.564Z,36.54
2018-06-10T13:49:38.182Z,36.27
2018-06-10T13:52:06.853Z,35.25
2018-06-10T13:54:35.574Z,34.58
2018-06-10T13:57:04.226Z,35.23
2018-06-10T13:59:32.923Z,34.30
2018-06-10T14:02:01.765Z,34.15
2018-06-10T14:04:30.421Z,35.07
2018-06-10T14:06:59.057Z,35.76
2018-06-10T14:09:27.703Z,36.12
2018-06-10T14:11:57.939Z,36.92
2018-06-10T14:14:26.555Z,36.94
2018-06-10T14:16:55.183Z,36.76
2018-06-10T14:19:23.833Z,38.27
2018-06-10T14:21:52.480Z,38.69
2018-06-10T14:24:21.102Z,38.22
2018-06-10T14:26:49.765Z,37.79
2018-06-10T14:29:18.386Z,37.80
2018-06-10T14:31:48.062Z,38.08
2018-06-10T14:34:16.742Z,37.98
2018-06-10T14:36:45.363Z,37.91
2018-06-10T14:39:14.047Z,37.31
2018-06-10T14:41:42.781Z,37.84
2018-06-10T14:44:11.570Z,36.83
2018-06-10T14:46:40.226Z,35.63
2018-06-10T14:49:08.881Z,34.39
2018-06-10T14:51:37.511Z,31.34
2018-06-10T14:54:06.118Z,30.11
2018-06-10T14:56:34.763Z,30.52
2018-06-10T14:59:03.421Z,29.95
2018-06-10T15:01:32.039Z,28.76
2018-06-10T15:04:00.808Z,27.25
2018-06-10T15:06:29.677Z,25.63
2018-06-10T15:08:58.370Z,23.73
2018-06-10T15:11:27.077Z,22.23
2018-06-10T15:13:56.097Z,20.96
2018-06-10T15:16:24.738Z,18.84
2018-06-10T15:18:54.000Z,18.00
2018-06-10T15:21:22.998Z,18.37
2018-06-10T15:23:51.799Z,18.36
2018-06-10T15:26:23.787Z,17.50
2018-06-10T15:28:53.191Z,18.42
2018-06-10T15:31:21.907Z,19.49
2018-06-10T15:33:50.507Z,18.77
2018-06-10T15:36:20.176Z,19.08
2018-06-10T15:38:48.819Z,18.77
2018-06-10T15:41:17.493Z,20.72
2018-06-10T15:43:46.509Z,21.24
2018-06-10T15:46:15.156Z,22.75
2018-06-10T15:48:43.853Z,22.34
2018-06-10T15:51:12.534Z,23.23
2018-06-10T15:53:41.290Z,25.26
2018-06-10T15:56:09.915Z,26.48
2018-06-10T15:58:38.968Z,29.14
2018-06-10T16:01:08.256Z,29.78
2018-06-10T16:03:38.219Z,30.61
2018-06-10T16:06:07.001Z,32.33
2018-06-10T16:08:35.812Z,33.19
2018-06-10T16:11:05.227Z,34.28
2018-06-10T16:13:33.965Z,34.42
2018-06-10T16:16:02.710Z,35.18
2018-06-10T16:18:31.479Z,36.28
2018-06-10T16:21:00.258Z,36.21
2018-06-10T16:23:29.062Z,37.31
2018-06-10T16:25:58.799Z,37.08
2018-06-10T16:28:28.532Z,37.46
2018-06-10T16:30:57.326Z,38.07
2018-06-10T16:33:26.230Z,37.80
2018-06-10T16:35:54.984Z,38.39
2018-06-10T16:38:23.694Z,39.40
2018-06-10T16:40:52.519Z,39.59
2018-06-10T16:43:21.306Z,39.64
2018-06-10T16:45:50.080Z,39.84
2018-06-10T16:48:18.805Z,40.29
2018-06-10T16:50:47.605Z,40.72
2018-06-10T16:53:16.331Z,40.87
2018-06-10T16:55:45.040Z,40.44
2018-06-10T16:58:13.866Z,40.86
2018-06-10T17:00:42.695Z,41.54
2018-06-10T17:03:11.382Z,41.10
2018-06-10T17:05:40.106Z,41.51
2018-06-10T17:08:08.936Z,41.92
2018-06-10T17:10:37.586Z,41.79
2018-06-10T17:13:06.251Z,42.07
2018-06-10T17:15:34.930Z,42.41
2018-06-10T17:18:04.155Z,42.25
2018-06-10T17:20:32.920Z,42.17
2018-06-10T17:23:01.595Z,42.47
2018-06-10T17:25:30.242Z,41.21
2018-06-10T17:27:58.988Z,38.35
2018-06-10T17:30:28.928Z,36.24
2018-06-10T17:32:57.589Z,33.97
2018-06-10T17:35:26.255Z,33.85
2018-06-10T17:37:54.948Z,34.98
2018-06-10T17:40:23.546Z,34.71
2018-06-10T17:42:52.209Z,32.57
2018-06-10T17:45:20.894Z,31.37
2018-06-10T17:47:49.556Z,30.16
2018-06-10T17:50:18.261Z,29.94
2018-06-10T17:52:47.003Z,29.31
2018-06-10T17:55:15.745Z,29.79
2018-06-10T17:57:44.357Z,30.09
2018-06-10T18:00:13.026Z,30.70
2018-06-10T18:02:41.715Z,31.82
2018-06-10T18:05:10.406Z,33.19
2018-06-10T18:07:39.040Z,35.31
2018-06-10T18:10:07.822Z,36.30
2018-06-10T18:12:36.637Z,37.03
2018-06-10T18:15:05.372Z,38.67
2018-06-10T18:17:34.078Z,39.32
2018-06-10T18:20:03.146Z,40.62
2018-06-10T18:22:31.835Z,41.92
2018-06-10T18:25:00.503Z,42.32
2018-06-10T18:27:29.190Z,43.41
2018-06-10T18:29:57.870Z,44.59
2018-06-10T18:32:26.539Z,45.46
2018-06-10T18:34:55.181Z,46.25
2018-06-10T18:37:24.563Z,46.76
2018-06-10T18:39:53.260Z,47.27
2018-06-10T18:42:21.902Z,48.13
2018-06-10T18:44:50.610Z,48.70
2018-06-10T18:47:19.344Z,49.35
2018-06-10T18:49:48.047Z,50.35
2018-06-10T18:52:16.711Z,50.69
2018-06-10T18:54:45.366Z,51.24
2018-06-10T18:57:14.056Z,51.69
2018-06-10T18:59:42.762Z,52.10
2018-06-10T19:02:11.481Z,53.12
2018-06-10T19:04:40.286Z,53.66
2018-06-10T19:07:09.002Z,54.02
2018-06-10T19:09:37.739Z,54.18
2018-06-10T19:12:06.523Z,54.72
2018-06-10T19:14:35.291Z,54.86
2018-06-10T19:17:04.136Z,55.17
2018-06-10T19:19:32.792Z,55.98
2018-06-10T19:22:01.576Z,56.57
2018-06-10T19:24:30.232Z,56.85
2018-06-10T19:26:58.923Z,56.99
2018-06-10T19:29:27.606Z,57.15
2018-06-10T19:31:56.274Z,57.66
2018-06-10T19:34:25.469Z,58.31
2018-06-10T19:36:54.229Z,57.68
2018-06-10T19:39:22.931Z,57.62
2018-06-10T19:41:51.611Z,57.54
2018-06-10T19:44:20.299Z,57.99
2018-06-10T19:46:49.035Z,58.28
2018-06-10T19:49:17.703Z,58.66
2018-06-10T19:51:46.431Z,57.80
2018-06-10T19:54:15.726Z,58.00
2018-06-10T19:56:44.457Z,58.70
2018-06-10T19:59:13.205Z,58.80
2018-06-10T20:01:41.886Z,58.25
2018-06-10T20:04:10.578Z,58.48
2018-06-10T20:06:39.330Z,59.32
2018-06-10T20:09:08.423Z,59.89
2018-06-10T20:11:37.090Z,59.81
2018-06-10T20:14:05.748Z,59.52
2018-06-10T20:16:34.461Z,59.90
2018-06-10T20:19:03.156Z,59.81
2018-06-10T20:21:31.862Z,60.67
2018-06-10T20:24:00.660Z,61.20
2018-06-10T20:26:29.364Z,61.97
2018-06-10T20:28:58.099Z,61.72
2018-06-10T20:31:26.875Z,62.41
2018-06-10T20:33:56.145Z,62.21
2018-06-10T20:36:24.897Z,63.23
2018-06-10T20:38:53.501Z,62.94
2018-06-10T20:41:22.142Z,63.47
2018-06-10T20:43:51.465Z,64.04
2018-06-10T20:46:21.758Z,63.99
2018-06-10T20:48:50.389Z,64.48
2018-06-10T20:51:19.623Z,65.72
2018-06-10T20:53:48.279Z,65.64
2018-06-10T20:56:16.925Z,65.93
2018-06-10T20:58:45.556Z,68.05
2018-06-10T21:01:14.193Z,70.43
2018-06-10T21:03:42.831Z,70.63
2018-06-10T21:06:11.448Z,72.46
2018-06-10T21:08:40.109Z,71.90
2018-06-10T21:11:08.777Z,72.20
2018-06-10T21:13:37.407Z,72.13
2018-06-10T21:16:06.083Z,73.17
2018-06-10T21:18:34.706Z,74.13
2018-06-10T21:21:03.366Z,74.89
2018-06-10T21:23:32.048Z,74.57
2018-06-10T21:26:00.637Z,73.96
2018-06-10T21:28:29.239Z,74.15
2018-06-10T21:30:57.851Z,74.06
2018-06-10T21:33:26.503Z,74.98
2018-06-10T21:35:55.137Z,74.24
2018-06-10T21:38:24.162Z,74.36
2018-06-10T21:40:52.816Z,74.38
2018-06-10T21:43:21.441Z,74.03
2018-06-10T21:45:50.057Z,74.17
2018-06-10T21:48:18.741Z,75.93
2018-06-10T21:50:47.336Z,76.67
2018-06-10T21:53:15.987Z,77.04
2018-06-10T21:55:44.662Z,77.16
2018-06-10T21:58:13.286Z,79.15
2018-06-10T22:00:42.016Z,78.72
2018-06-10T22:03:10.648Z,78.20
2018-06-10T22:05:39.263Z,77.60
2018-06-10T22:08:07.892Z,76.42
2018-06-10T22:10:36.568Z,77.45
2018-06-10T22:13:05.173Z,76.63
2018-06-10T22:15:33.790Z,76.22
2018-06-10T22:18:02.446Z,75.24
2018-06-10T22:20:31.047Z,74.74
2018-06-10T22:22:59.639Z,74.14
2018-06-10T22:25:28.359Z,75.20
2018-06-10T22:27:56.977Z,74.88
2018-06-10T22:30:25.604Z,75.94
2018-06-10T22:32:54.249Z,76.22
2018-06-10T22:35:22.879Z,76.88
2018-06-10T22:37:51.473Z,77.29
2018-06-10T22:40:20.169Z,77.76
2018-06-10T22:42:48.746Z,77.91
2018-06-10T22:45:17.329Z,77.89
2018-06-10T22:47:45.953Z,77.22
2018-06-10T22:50:14.713Z,77.40
2018-06-10T22:52:43.488Z,77.51
2018-06-10T22:55:12.824Z,77.33
2018-06-10T22:57:41.412Z,77.42
2018-06-10T23:00:10.034Z,77.33
2018-06-10T23:02:38.625Z,77.48
2018-06-10T23:05:07.252Z,77.08
2018-06-10T23:07:35.862Z,76.60
2018-06-10T23:10:04.521Z,77.00
2018-06-10T23:12:33.094Z,77.44
2018-06-10T23:15:01.660Z,76.95
2018-06-10T23:17:30.307Z,76.81
2018-06-10T23:19:58.882Z,77.26
2018-06-10T23:22:27.481Z,77.80
2018-06-10T23:24:56.074Z,76.99
2018-06-10T23:27:24.661Z,77.05
2018-06-10T23:29:53.312Z,77.58
2018-06-10T23:32:21.979Z,77.40
2018-06-10T23:34:50.559Z,78.71
2018-06-10T23:37:19.130Z,78.10
2018-06-10T23:39:47.685Z,78.45
2018-06-10T23:42:16.261Z,78.29
2018-06-10T23:44:44.845Z,78.46
2018-06-10T23:47:13.404Z,79.14
2018-06-10T23:49:42.009Z,79.79
2018-06-10T23:52:10.585Z,80.09
2018-06-10T23:54:39.154Z,80.63
2018-06-10T23:57:07.741Z,79.62
2018-06-10T23:59:36.315Z,80.07
